createdAt,value
2022-08-04T00:12:35.429Z,64.40
2022-08-04T00:15:59.351Z,64.78
2022-08-04T00:31:57.781Z,65.08
2022-08-04T00:36:00.108Z,65.81
2022-08-04T01:12:44.271Z,65.63
2022-08-04T01:15:57.108Z,66.12
2022-08-04T01:26:58.820Z,65.87
2022-08-04T01:40:28.758Z,66.18
2022-08-04T01:43:58.012Z,66.50
2022-08-04T01:50:48.043Z,66.63
2022-08-04T01:54:11.824Z,66.18
2022-08-04T01:57:37.648Z,66.80
2022-08-04T02:00:34.792Z,66.87
2022-08-04T02:04:21.937Z,66.95
2022-08-04T02:14:26.612Z,66.88
2022-08-04T02:20:41.391Z,66.97
2022-08-04T02:23:17.635Z,67.21
2022-08-04T02:29:39.207Z,67.21
2022-08-04T02:32:56.261Z,67.12
2022-08-04T02:35:48.448Z,67.65
2022-08-04T02:38:39.273Z,67.28
2022-08-04T02:41:53.991Z,67.11
2022-08-04T02:51:13.984Z,67.60
2022-08-04T03:00:54.015Z,67.71
2022-08-04T03:04:13.371Z,68.12
2022-08-04T03:07:29.198Z,67.66
2022-08-04T03:10:47.578Z,68.01
2022-08-04T03:14:02.012Z,67.80
2022-08-04T03:17:15.342Z,68.37
2022-08-04T03:20:25.367Z,68.10
2022-08-04T03:23:33.035Z,68.16
2022-08-04T03:26:52.977Z,68.07
2022-08-04T03:30:31.727Z,68.16
2022-08-04T03:37:25.336Z,68.34
2022-08-04T03:45:17.370Z,68.28
2022-08-04T03:52:55.130Z,68.56
2022-08-04T03:56:01.191Z,68.25
2022-08-04T03:59:06.011Z,68.81
2022-08-04T04:02:25.771Z,68.61
2022-08-04T04:05:29.920Z,68.71
2022-08-04T04:08:31.002Z,68.69
2022-08-04T04:11:31.817Z,68.93
2022-08-04T04:14:44.898Z,68.48
2022-08-04T04:17:49.702Z,68.50
2022-08-04T04:21:13.918Z,68.62
2022-08-04T04:24:36.397Z,68.53
2022-08-04T04:27:25.461Z,68.09
2022-08-04T04:30:20.584Z,68.60
2022-08-04T04:33:53.125Z,68.03
2022-08-04T04:36:44.444Z,68.18
2022-08-04T04:43:09.802Z,67.74
2022-08-04T04:46:15.388Z,67.72
2022-08-04T04:49:02.513Z,67.43
2022-08-04T04:51:40.894Z,67.65
2022-08-04T04:57:54.034Z,65.88
2022-08-04T05:01:36.036Z,63.73
2022-08-04T05:09:31.581Z,61.09
2022-08-04T06:00:56.726Z,38.55
2022-08-04T06:03:27.057Z,38.19
2022-08-04T06:05:57.691Z,38.15
2022-08-04T06:08:26.040Z,36.89
2022-08-04T06:10:57.349Z,36.51
2022-08-04T06:13:47.602Z,35.91
2022-08-04T06:16:28.746Z,34.36
2022-08-04T06:20:00.069Z,33.45
2022-08-04T06:21:52.246Z,33.48
2022-08-04T06:24:25.569Z,33.26
2022-08-04T06:26:56.876Z,33.66
2022-08-04T06:29:33.678Z,34.22
2022-08-04T06:32:27.916Z,34.19
2022-08-04T06:35:03.080Z,34.95
2022-08-04T06:37:43.013Z,33.43
2022-08-04T06:40:30.584Z,32.71
2022-08-04T06:43:02.412Z,34.07
2022-08-04T06:45:53.940Z,33.24
2022-08-04T07:01:41.925Z,24.74
2022-08-04T07:04:11.377Z,24.25
2022-08-04T07:06:39.453Z,23.55
2022-08-04T07:09:07.411Z,21.90
2022-08-04T07:11:39.783Z,22.78
2022-08-04T07:14:12.256Z,19.61
2022-08-04T07:16:42.908Z,21.51
2022-08-04T07:19:13.767Z,19.82
2022-08-04T07:22:18.211Z,20.67
2022-08-04T07:24:32.506Z,20.14
2022-08-04T07:27:00.955Z,19.64
2022-08-04T07:29:29.172Z,20.40
2022-08-04T07:32:00.838Z,19.53
2022-08-04T07:34:31.744Z,19.32
2022-08-04T07:37:02.156Z,18.36
2022-08-04T07:39:33.760Z,19.28
2022-08-04T07:42:19.665Z,19.03
2022-08-04T07:44:47.932Z,17.17
2022-08-04T07:47:17.936Z,18.53
2022-08-04T07:49:55.806Z,17.22
2022-08-04T07:52:26.753Z,16.33
2022-08-04T07:54:55.428Z,15.90
2022-08-04T07:57:41.110Z,16.27
2022-08-04T08:00:11.944Z,15.66
2022-08-04T08:02:42.045Z,14.35
2022-08-04T08:05:12.001Z,14.66
2022-08-04T08:07:50.719Z,15.94
2022-08-04T08:10:23.075Z,16.12
2022-08-04T08:12:52.421Z,17.16
2022-08-04T08:15:21.595Z,15.92
2022-08-04T08:17:57.989Z,16.98
2022-08-04T08:20:29.720Z,14.71
2022-08-04T08:22:58.351Z,14.64
2022-08-04T08:25:26.302Z,14.44
2022-08-04T08:27:56.171Z,13.75
2022-08-04T08:30:25.062Z,12.02
2022-08-04T08:33:02.462Z,11.63
2022-08-04T08:35:53.086Z,11.34
2022-08-04T08:38:35.382Z,11.03
2022-08-04T08:41:22.769Z,10.25
2022-08-04T08:44:07.644Z,10.35
2022-08-04T08:46:59.146Z,10.04
2022-08-04T08:50:00.308Z,9.11
2022-08-04T08:52:56.605Z,7.96
2022-08-04T08:55:34.980Z,9.54
2022-08-04T08:58:24.360Z,8.84
2022-08-04T09:00:57.980Z,8.22
2022-08-04T09:03:47.259Z,8.78
2022-08-04T09:06:49.326Z,8.33
2022-08-04T09:10:00.495Z,8.05
2022-08-04T09:12:34.543Z,7.12
2022-08-04T09:15:12.766Z,6.96
2022-08-04T09:17:46.588Z,6.37
2022-08-04T09:20:22.453Z,5.51
2022-08-04T09:22:57.529Z,6.40
2022-08-04T09:25:31.594Z,6.65
2022-08-04T09:28:09.363Z,6.05
2022-08-04T09:30:44.241Z,5.55
2022-08-04T09:33:44.490Z,5.84
2022-08-04T09:36:25.781Z,5.21
2022-08-04T09:39:07.318Z,5.58
2022-08-04T09:41:48.390Z,5.27
2022-08-04T09:44:51.183Z,5.96
2022-08-04T09:47:20.118Z,4.61
2022-08-04T09:49:55.152Z,5.63
2022-08-04T09:52:33.594Z,4.53
2022-08-04T09:55:10.203Z,4.69
2022-08-04T09:57:49.692Z,4.83
2022-08-04T10:00:20.640Z,4.63
2022-08-04T10:03:14.746Z,4.27
2022-08-04T10:05:59.043Z,4.40
2022-08-04T10:08:45.033Z,4.69
2022-08-04T10:11:22.445Z,4.48
2022-08-04T10:13:58.374Z,4.19
2022-08-04T10:16:39.078Z,5.51
2022-08-04T10:19:16.516Z,4.97
2022-08-04T10:22:27.057Z,4.79
2022-08-04T10:25:02.349Z,4.80
2022-08-04T10:27:34.996Z,4.84
2022-08-04T10:30:11.767Z,5.82
2022-08-04T10:32:46.967Z,6.54
2022-08-04T10:35:16.894Z,5.13
2022-08-04T10:38:00.134Z,4.62
2022-08-04T10:40:40.690Z,4.73
2022-08-04T10:43:23.380Z,4.71
2022-08-04T10:45:58.012Z,4.52
2022-08-04T10:48:38.774Z,4.82
2022-08-04T10:51:16.807Z,5.25
2022-08-04T10:53:46.336Z,6.43
2022-08-04T10:56:19.063Z,8.57
2022-08-04T10:58:55.897Z,9.41
2022-08-04T11:02:01.007Z,8.69
2022-08-04T11:04:27.440Z,7.39
2022-08-04T11:06:56.647Z,7.25
2022-08-04T11:09:25.005Z,7.01
2022-08-04T11:12:02.084Z,7.59
2022-08-04T11:14:38.913Z,6.46
2022-08-04T11:17:11.969Z,6.86
2022-08-04T11:19:49.989Z,6.38
2022-08-04T11:22:27.115Z,6.19
2022-08-04T11:25:02.619Z,5.85
2022-08-04T11:27:40.002Z,5.85
2022-08-04T11:30:13.486Z,6.87
2022-08-04T11:32:46.735Z,6.22
2022-08-04T11:35:23.461Z,8.19
2022-08-04T11:38:02.320Z,9.59
2022-08-04T11:41:02.149Z,10.03
2022-08-04T11:43:56.481Z,11.81
2022-08-04T11:46:36.913Z,12.51
2022-08-04T11:49:09.260Z,13.68
2022-08-04T11:51:37.468Z,13.80
2022-08-04T11:54:06.319Z,14.53
2022-08-04T11:56:36.709Z,13.57
2022-08-04T11:59:08.041Z,14.74
2022-08-04T12:01:52.199Z,14.28
2022-08-04T12:04:29.512Z,15.46
2022-08-04T12:07:31.818Z,14.77
2022-08-04T12:10:12.753Z,14.86
2022-08-04T12:12:47.864Z,15.90
2022-08-04T12:15:23.551Z,17.31
2022-08-04T12:18:05.455Z,17.88
2022-08-04T12:20:42.053Z,16.99
2022-08-04T12:23:18.589Z,17.14
2022-08-04T12:25:55.623Z,16.43
2022-08-04T12:28:41.613Z,18.28
2022-08-04T12:31:21.456Z,19.33
2022-08-04T12:34:05.069Z,19.70
2022-08-04T12:36:41.185Z,21.40
2022-08-04T12:39:12.879Z,19.77
2022-08-04T12:41:46.570Z,21.82
2022-08-04T12:44:37.020Z,22.74
2022-08-04T12:47:36.128Z,21.48
2022-08-04T12:50:01.818Z,20.83
2022-08-04T12:55:28.702Z,22.19
2022-08-04T12:57:58.011Z,23.12
2022-08-04T13:00:31.986Z,23.08
2022-08-04T13:03:10.157Z,24.06
2022-08-04T13:05:42.054Z,24.07
2022-08-04T13:08:12.460Z,24.84
2022-08-04T13:10:41.848Z,24.98
2022-08-04T13:13:16.845Z,25.38
2022-08-04T13:15:56.453Z,25.68
2022-08-04T13:18:30.181Z,26.09
2022-08-04T13:21:21.252Z,24.74
2022-08-04T13:24:09.335Z,24.78
2022-08-04T13:26:55.176Z,25.49
2022-08-04T13:29:58.804Z,24.94
2022-08-04T13:32:18.353Z,24.84
2022-08-04T13:34:49.535Z,25.69
2022-08-04T13:37:24.569Z,24.95
2022-08-04T13:39:55.401Z,24.85
2022-08-04T13:42:26.135Z,24.72
2022-08-04T13:44:57.062Z,25.51
2022-08-04T13:47:29.488Z,25.49
2022-08-04T13:50:14.676Z,24.92
2022-08-04T13:52:44.978Z,24.75
2022-08-04T13:55:21.385Z,25.68
2022-08-04T13:57:53.843Z,25.18
2022-08-04T14:00:29.746Z,25.58
2022-08-04T14:03:03.663Z,25.16
2022-08-04T14:06:07.964Z,24.56
2022-08-04T14:08:44.727Z,25.00
2022-08-04T14:12:06.738Z,25.57
2022-08-04T14:14:02.403Z,24.94
2022-08-04T14:16:30.364Z,26.17
2022-08-04T14:19:00.820Z,25.89
2022-08-04T14:21:29.257Z,26.31
2022-08-04T14:23:58.914Z,26.68
2022-08-04T14:26:33.403Z,26.28
2022-08-04T14:29:26.697Z,27.46
2022-08-04T14:32:12.607Z,27.99
2022-08-04T14:34:44.916Z,26.96
2022-08-04T14:37:19.398Z,25.81
2022-08-04T14:40:18.681Z,26.80
2022-08-04T14:42:44.377Z,26.72
2022-08-04T14:45:29.460Z,27.18
2022-08-04T14:47:57.832Z,26.17
2022-08-04T14:50:35.985Z,26.74
2022-08-04T14:53:05.616Z,26.15
2022-08-04T14:55:35.327Z,26.59
2022-08-04T14:58:36.700Z,26.08
2022-08-04T15:00:53.508Z,26.24
2022-08-04T15:03:22.319Z,25.60
2022-08-04T15:06:01.007Z,25.71
2022-08-04T15:08:34.205Z,25.33
2022-08-04T15:11:03.756Z,26.00
2022-08-04T15:13:33.172Z,26.11
2022-08-04T15:16:06.941Z,26.39
2022-08-04T15:18:36.970Z,27.73
2022-08-04T15:21:06.540Z,26.97
2022-08-04T15:23:39.757Z,28.92
2022-08-04T15:26:14.001Z,29.26
2022-08-04T15:28:48.432Z,28.95
2022-08-04T15:32:07.043Z,28.60
2022-08-04T15:34:08.563Z,29.11
2022-08-04T15:36:43.275Z,29.77
2022-08-04T15:39:23.335Z,28.55
2022-08-04T15:41:59.409Z,28.40
2022-08-04T15:44:50.187Z,28.78
2022-08-04T15:47:18.543Z,28.41
2022-08-04T15:50:03.354Z,28.31
2022-08-04T15:53:01.455Z,28.44
2022-08-04T15:55:39.351Z,29.48
2022-08-04T15:58:11.860Z,29.78
2022-08-04T16:01:33.384Z,29.09
2022-08-04T16:04:01.950Z,28.97
2022-08-04T16:06:44.731Z,28.78
2022-08-04T16:09:46.367Z,29.36
2022-08-04T16:16:04.739Z,30.56
2022-08-04T16:18:57.701Z,30.50
2022-08-04T16:21:28.079Z,30.55
2022-08-04T16:24:26.366Z,30.89
2022-08-04T16:27:09.442Z,31.57
2022-08-04T16:29:42.474Z,32.82
2022-08-04T16:32:42.566Z,31.66
2022-08-04T16:36:07.804Z,31.59
2022-08-04T16:39:08.378Z,32.09
2022-08-04T16:42:48.894Z,32.13
2022-08-04T16:45:55.287Z,33.39
2022-08-04T16:48:29.042Z,33.80
2022-08-04T16:51:04.750Z,35.47
2022-08-04T16:54:02.623Z,36.73
2022-08-04T16:56:34.236Z,36.67
2022-08-04T16:59:10.228Z,37.42
2022-08-04T17:01:38.955Z,38.41
2022-08-04T17:04:08.370Z,38.76
2022-08-04T17:06:38.176Z,39.72
2022-08-04T17:09:07.940Z,39.51
2022-08-04T17:11:36.043Z,38.74
2022-08-04T17:14:06.150Z,40.12
2022-08-04T17:16:36.509Z,39.71
2022-08-04T17:19:05.371Z,39.45
2022-08-04T17:21:37.630Z,39.42
2022-08-04T17:24:14.752Z,39.91
2022-08-04T17:26:54.045Z,40.54
2022-08-04T17:29:43.578Z,39.72
2022-08-04T17:32:18.544Z,39.94
2022-08-04T17:34:50.623Z,40.47
2022-08-04T17:37:52.636Z,40.83
2022-08-04T17:40:13.959Z,40.77
2022-08-04T17:42:45.098Z,41.34
2022-08-04T17:45:51.368Z,40.92
2022-08-04T17:48:09.304Z,42.48
2022-08-04T17:50:43.408Z,41.61
2022-08-04T17:53:13.551Z,41.40
2022-08-04T17:55:46.793Z,41.67
2022-08-04T17:58:21.447Z,42.37
2022-08-04T18:03:52.877Z,43.12
2022-08-04T18:06:21.833Z,44.22
2022-08-04T18:08:58.067Z,45.13
2022-08-04T18:11:29.802Z,45.47
2022-08-04T18:14:10.909Z,45.09
2022-08-04T18:16:44.430Z,45.26
2022-08-04T18:19:13.405Z,45.22
2022-08-04T18:21:46.387Z,45.00
2022-08-04T18:24:35.170Z,45.91
2022-08-04T18:27:20.080Z,46.16
2022-08-04T18:30:15.180Z,46.00
2022-08-04T18:32:35.847Z,46.74
2022-08-04T18:35:07.470Z,47.33
2022-08-04T18:38:05.007Z,46.76
2022-08-04T18:40:37.808Z,48.29
2022-08-04T18:43:14.063Z,48.28
2022-08-04T18:45:51.312Z,48.55
2022-08-04T18:48:19.299Z,48.90
2022-08-04T18:51:09.804Z,49.64
2022-08-04T18:53:58.533Z,49.04
2022-08-04T18:56:29.300Z,50.11
2022-08-04T18:59:00.234Z,49.61
2022-08-04T19:01:30.238Z,50.20
2022-08-04T19:04:33.837Z,50.11
2022-08-04T19:07:23.321Z,50.79
2022-08-04T19:12:41.923Z,50.77
2022-08-04T19:15:11.453Z,51.28
2022-08-04T19:17:57.155Z,51.84
2022-08-04T19:20:29.723Z,51.96
2022-08-04T19:24:29.051Z,52.40
2022-08-04T19:26:03.750Z,52.32
2022-08-04T19:28:37.050Z,52.71
2022-08-04T19:31:07.501Z,52.58
2022-08-04T19:33:58.815Z,52.88
2022-08-04T19:36:28.416Z,53.16
2022-08-04T19:53:37.296Z,53.78
2022-08-04T19:57:25.101Z,54.00
2022-08-04T20:19:15.993Z,56.40
2022-08-04T21:02:48.128Z,59.21
